sensor_id;sensor_type;location;lat;lon;timestamp;P1;durP1;ratioP1;P2;durP2;ratioP2
21239;SDS011;10778;48.962;9.018;2022-12-11T00:02:05;60.78;;;32.78;;
21239;SDS011;10778;48.962;9.018;2022-12-11T00:04:31;48.08;;;26.92;;
21239;SDS011;10778;48.962;9.018;2022-12-11T00:06:57;43.42;;;23.55;;
21239;SDS011;10778;48.962;9.018;2022-12-11T00:09:23;39.25;;;22.45;;
21239;SDS011;10778;48.962;9.018;2022-12-11T00:11:50;40.55;;;22.52;;
21239;SDS011;10778;48.962;9.018;2022-12-11T00:14:16;38.28;;;20.42;;
21239;SDS011;10778;48.962;9.018;2022-12-11T00:16:42;35.08;;;19.85;;
21239;SDS011;10778;48.962;9.018;2022-12-11T00:19:08;35.25;;;20.08;;
21239;SDS011;10778;48.962;9.018;2022-12-11T00:21:34;37.95;;;20.63;;
21239;SDS011;10778;48.962;9.018;2022-12-11T00:24:00;36.15;;;20.67;;
21239;SDS011;10778;48.962;9.018;2022-12-11T00:26:26;36.90;;;20.08;;
21239;SDS011;10778;48.962;9.018;2022-12-11T00:28:53;35.78;;;20.42;;
21239;SDS011;10778;48.962;9.018;2022-12-11T00:31:21;37.30;;;20.98;;
21239;SDS011;10778;48.962;9.018;2022-12-11T00:33:48;34.35;;;19.95;;
21239;SDS011;10778;48.962;9.018;2022-12-11T00:36:16;36.95;;;20.50;;
21239;SDS011;10778;48.962;9.018;2022-12-11T00:38:44;36.25;;;19.88;;
21239;SDS011;10778;48.962;9.018;2022-12-11T00:41:10;38.00;;;20.13;;
21239;SDS011;10778;48.962;9.018;2022-12-11T00:43:36;34.70;;;19.65;;
21239;SDS011;10778;48.962;9.018;2022-12-11T00:46:02;38.80;;;21.13;;
21239;SDS011;10778;48.962;9.018;2022-12-11T00:48:29;54.55;;;27.83;;
21239;SDS011;10778;48.962;9.018;2022-12-11T00:50:55;48.50;;;25.75;;
21239;SDS011;10778;48.962;9.018;2022-12-11T00:53:21;60.83;;;29.77;;
21239;SDS011;10778;48.962;9.018;2022-12-11T00:55:47;41.72;;;23.48;;
21239;SDS011;10778;48.962;9.018;2022-12-11T00:58:13;40.88;;;21.83;;
21239;SDS011;10778;48.962;9.018;2022-12-11T01:00:40;35.75;;;20.73;;
21239;SDS011;10778;48.962;9.018;2022-12-11T01:03:08;40.55;;;21.40;;
21239;SDS011;10778;48.962;9.018;2022-12-11T01:05:35;138.77;;;50.47;;
21239;SDS011;10778;48.962;9.018;2022-12-11T01:08:02;165.63;;;56.50;;
21239;SDS011;10778;48.962;9.018;2022-12-11T01:10:28;139.65;;;49.30;;
21239;SDS011;10778;48.962;9.018;2022-12-11T01:12:59;92.60;;;36.22;;
21239;SDS011;10778;48.962;9.018;2022-12-11T01:15:30;59.83;;;27.17;;
21239;SDS011;10778;48.962;9.018;2022-12-11T01:17:58;35.10;;;19.77;;
21239;SDS011;10778;48.962;9.018;2022-12-11T01:20:24;33.47;;;18.98;;
21239;SDS011;10778;48.962;9.018;2022-12-11T01:22:53;39.75;;;20.27;;
21239;SDS011;10778;48.962;9.018;2022-12-11T01:25:21;43.65;;;23.52;;
21239;SDS011;10778;48.962;9.018;2022-12-11T01:27:51;35.90;;;19.77;;
21239;SDS011;10778;48.962;9.018;2022-12-11T01:30:18;38.13;;;20.00;;
21239;SDS011;10778;48.962;9.018;2022-12-11T01:32:45;30.35;;;18.60;;
21239;SDS011;10778;48.962;9.018;2022-12-11T01:35:12;33.58;;;18.52;;
21239;SDS011;10778;48.962;9.018;2022-12-11T01:37:38;32.00;;;17.70;;
21239;SDS011;10778;48.962;9.018;2022-12-11T01:40:05;31.45;;;18.65;;
21239;SDS011;10778;48.962;9.018;2022-12-11T01:42:32;33.30;;;18.05;;
21239;SDS011;10778;48.962;9.018;2022-12-11T01:47:51;36.75;;;19.80;;
21239;SDS011;10778;48.962;9.018;2022-12-11T01:50:21;35.10;;;19.65;;
21239;SDS011;10778;48.962;9.018;2022-12-11T01:52:48;30.75;;;18.00;;
21239;SDS011;10778;48.962;9.018;2022-12-11T01:55:15;35.65;;;18.60;;
21239;SDS011;10778;48.962;9.018;2022-12-11T01:57:43;35.30;;;19.98;;
21239;SDS011;10778;48.962;9.018;2022-12-11T02:00:14;35.35;;;19.95;;
21239;SDS011;10778;48.962;9.018;2022-12-11T02:02:40;35.05;;;19.30;;
21239;SDS011;10778;48.962;9.018;2022-12-11T02:05:06;38.03;;;20.88;;
21239;SDS011;10778;48.962;9.018;2022-12-11T02:07:37;37.50;;;22.13;;
21239;SDS011;10778;48.962;9.018;2022-12-11T02:10:08;39.17;;;22.63;;
21239;SDS011;10778;48.962;9.018;2022-12-11T02:18:09;38.60;;;22.13;;
21239;SDS011;10778;48.962;9.018;2022-12-11T02:20:54;41.75;;;23.42;;
21239;SDS011;10778;48.962;9.018;2022-12-11T02:29:07;40.42;;;23.65;;
21239;SDS011;10778;48.962;9.018;2022-12-11T02:31:39;44.63;;;23.70;;
21239;SDS011;10778;48.962;9.018;2022-12-11T02:37:08;39.90;;;22.65;;
21239;SDS011;10778;48.962;9.018;2022-12-11T02:39:39;44.95;;;24.38;;
21239;SDS011;10778;48.962;9.018;2022-12-11T02:42:08;43.95;;;24.50;;
21239;SDS011;10778;48.962;9.018;2022-12-11T02:44:37;45.13;;;24.55;;
21239;SDS011;10778;48.962;9.018;2022-12-11T02:47:06;43.63;;;25.05;;
21239;SDS011;10778;48.962;9.018;2022-12-11T02:49:36;45.75;;;24.90;;
21239;SDS011;10778;48.962;9.018;2022-12-11T02:52:05;46.10;;;24.73;;
21239;SDS011;10778;48.962;9.018;2022-12-11T02:54:32;44.30;;;24.08;;
21239;SDS011;10778;48.962;9.018;2022-12-11T02:57:04;45.65;;;24.83;;
21239;SDS011;10778;48.962;9.018;2022-12-11T02:59:37;45.35;;;24.52;;
21239;SDS011;10778;48.962;9.018;2022-12-11T03:02:06;48.75;;;26.15;;
21239;SDS011;10778;48.962;9.018;2022-12-11T03:04:33;46.20;;;25.35;;
21239;SDS011;10778;48.962;9.018;2022-12-11T03:07:02;52.40;;;26.42;;
21239;SDS011;10778;48.962;9.018;2022-12-11T03:09:40;48.15;;;24.48;;
21239;SDS011;10778;48.962;9.018;2022-12-11T03:12:08;50.35;;;26.42;;
21239;SDS011;10778;48.962;9.018;2022-12-11T03:14:37;46.35;;;24.90;;
21239;SDS011;10778;48.962;9.018;2022-12-11T03:17:13;47.47;;;25.98;;
21239;SDS011;10778;48.962;9.018;2022-12-11T03:19:49;46.92;;;25.83;;
21239;SDS011;10778;48.962;9.018;2022-12-11T03:22:45;48.25;;;25.83;;
21239;SDS011;10778;48.962;9.018;2022-12-11T03:25:16;47.20;;;25.88;;
21239;SDS011;10778;48.962;9.018;2022-12-11T03:27:47;48.28;;;25.45;;
21239;SDS011;10778;48.962;9.018;2022-12-11T03:30:22;50.00;;;25.60;;
21239;SDS011;10778;48.962;9.018;2022-12-11T03:33:01;45.50;;;25.42;;
21239;SDS011;10778;48.962;9.018;2022-12-11T03:35:35;48.10;;;25.33;;
21239;SDS011;10778;48.962;9.018;2022-12-11T03:38:05;47.28;;;25.52;;
21239;SDS011;10778;48.962;9.018;2022-12-11T03:40:36;47.15;;;24.80;;
21239;SDS011;10778;48.962;9.018;2022-12-11T03:43:06;46.35;;;24.92;;
21239;SDS011;10778;48.962;9.018;2022-12-11T03:45:34;46.30;;;24.40;;
21239;SDS011;10778;48.962;9.018;2022-12-11T03:48:03;44.92;;;25.05;;
21239;SDS011;10778;48.962;9.018;2022-12-11T03:50:32;43.75;;;24.42;;
21239;SDS011;10778;48.962;9.018;2022-12-11T03:53:00;44.97;;;24.67;;
21239;SDS011;10778;48.962;9.018;2022-12-11T03:55:28;51.90;;;25.67;;
21239;SDS011;10778;48.962;9.018;2022-12-11T03:57:57;47.47;;;25.40;;
21239;SDS011;10778;48.962;9.018;2022-12-11T04:00:23;46.45;;;23.90;;
21239;SDS011;10778;48.962;9.018;2022-12-11T04:02:49;45.95;;;24.73;;
21239;SDS011;10778;48.962;9.018;2022-12-11T04:05:34;47.53;;;24.92;;
21239;SDS011;10778;48.962;9.018;2022-12-11T04:08:00;48.20;;;24.70;;
21239;SDS011;10778;48.962;9.018;2022-12-11T04:10:27;45.70;;;24.25;;
21239;SDS011;10778;48.962;9.018;2022-12-11T04:12:53;44.03;;;23.92;;
21239;SDS011;10778;48.962;9.018;2022-12-11T04:15:19;41.67;;;23.88;;
21239;SDS011;10778;48.962;9.018;2022-12-11T04:17:45;43.70;;;24.25;;
21239;SDS011;10778;48.962;9.018;2022-12-11T04:20:30;42.65;;;24.52;;
21239;SDS011;10778;48.962;9.018;2022-12-11T04:23:15;43.83;;;23.30;;
21239;SDS011;10778;48.962;9.018;2022-12-11T04:26:13;42.38;;;22.88;;
21239;SDS011;10778;48.962;9.018;2022-12-11T04:28:41;42.95;;;23.63;;
21239;SDS011;10778;48.962;9.018;2022-12-11T04:31:12;42.90;;;22.73;;
21239;SDS011;10778;48.962;9.018;2022-12-11T04:33:40;40.55;;;22.67;;
21239;SDS011;10778;48.962;9.018;2022-12-11T04:36:07;44.35;;;23.65;;
21239;SDS011;10778;48.962;9.018;2022-12-11T04:38:34;43.08;;;23.88;;
21239;SDS011;10778;48.962;9.018;2022-12-11T04:41:02;44.40;;;24.67;;
21239;SDS011;10778;48.962;9.018;2022-12-11T04:43:30;42.38;;;22.77;;
21239;SDS011;10778;48.962;9.018;2022-12-11T04:46:16;44.80;;;23.95;;
21239;SDS011;10778;48.962;9.018;2022-12-11T04:48:45;47.78;;;24.45;;
21239;SDS011;10778;48.962;9.018;2022-12-11T04:51:11;44.50;;;24.33;;
21239;SDS011;10778;48.962;9.018;2022-12-11T04:53:39;43.05;;;24.00;;
21239;SDS011;10778;48.962;9.018;2022-12-11T04:56:05;40.70;;;22.80;;
21239;SDS011;10778;48.962;9.018;2022-12-11T04:58:32;40.42;;;22.80;;
21239;SDS011;10778;48.962;9.018;2022-12-11T05:01:05;45.92;;;25.10;;
21239;SDS011;10778;48.962;9.018;2022-12-11T05:03:46;47.85;;;25.45;;
21239;SDS011;10778;48.962;9.018;2022-12-11T05:06:12;46.78;;;24.33;;
21239;SDS011;10778;48.962;9.018;2022-12-11T05:08:39;44.85;;;23.70;;
21239;SDS011;10778;48.962;9.018;2022-12-11T05:11:08;47.30;;;24.38;;
21239;SDS011;10778;48.962;9.018;2022-12-11T05:13:36;42.45;;;22.30;;
21239;SDS011;10778;48.962;9.018;2022-12-11T05:16:03;43.10;;;23.38;;
21239;SDS011;10778;48.962;9.018;2022-12-11T05:18:30;46.00;;;24.90;;
21239;SDS011;10778;48.962;9.018;2022-12-11T05:20:57;43.92;;;23.17;;
21239;SDS011;10778;48.962;9.018;2022-12-11T05:23:24;41.83;;;22.67;;
21239;SDS011;10778;48.962;9.018;2022-12-11T05:25:51;43.10;;;23.73;;
21239;SDS011;10778;48.962;9.018;2022-12-11T05:28:22;47.13;;;23.65;;
21239;SDS011;10778;48.962;9.018;2022-12-11T05:33:26;43.97;;;22.33;;
21239;SDS011;10778;48.962;9.018;2022-12-11T05:35:53;43.75;;;22.52;;
21239;SDS011;10778;48.962;9.018;2022-12-11T05:38:20;44.40;;;23.65;;
21239;SDS011;10778;48.962;9.018;2022-12-11T05:40:57;45.17;;;24.10;;
21239;SDS011;10778;48.962;9.018;2022-12-11T05:43:25;47.35;;;24.30;;
21239;SDS011;10778;48.962;9.018;2022-12-11T05:45:53;48.25;;;24.58;;
21239;SDS011;10778;48.962;9.018;2022-12-11T05:48:19;45.60;;;24.02;;
21239;SDS011;10778;48.962;9.018;2022-12-11T05:50:58;45.85;;;23.63;;
21239;SDS011;10778;48.962;9.018;2022-12-11T05:53:25;46.53;;;24.83;;
21239;SDS011;10778;48.962;9.018;2022-12-11T05:55:52;45.90;;;23.88;;
21239;SDS011;10778;48.962;9.018;2022-12-11T05:58:18;42.80;;;22.08;;
21239;SDS011;10778;48.962;9.018;2022-12-11T06:00:45;44.30;;;23.20;;
21239;SDS011;10778;48.962;9.018;2022-12-11T06:03:12;46.08;;;23.73;;
21239;SDS011;10778;48.962;9.018;2022-12-11T06:05:39;44.22;;;22.77;;
21239;SDS011;10778;48.962;9.018;2022-12-11T06:08:06;44.47;;;22.75;;
21239;SDS011;10778;48.962;9.018;2022-12-11T06:10:32;43.13;;;22.98;;
21239;SDS011;10778;48.962;9.018;2022-12-11T06:12:59;42.15;;;23.20;;
21239;SDS011;10778;48.962;9.018;2022-12-11T06:15:25;40.58;;;21.17;;
21239;SDS011;10778;48.962;9.018;2022-12-11T06:17:51;43.80;;;21.83;;
21239;SDS011;10778;48.962;9.018;2022-12-11T06:20:17;44.20;;;22.00;;
21239;SDS011;10778;48.962;9.018;2022-12-11T06:22:43;41.90;;;22.52;;
21239;SDS011;10778;48.962;9.018;2022-12-11T06:25:10;44.45;;;22.60;;
21239;SDS011;10778;48.962;9.018;2022-12-11T06:27:36;44.33;;;22.48;;
21239;SDS011;10778;48.962;9.018;2022-12-11T06:30:02;43.65;;;22.52;;
21239;SDS011;10778;48.962;9.018;2022-12-11T06:32:28;46.70;;;23.88;;
21239;SDS011;10778;48.962;9.018;2022-12-11T06:34:54;46.20;;;23.67;;
21239;SDS011;10778;48.962;9.018;2022-12-11T06:37:20;48.13;;;25.30;;
21239;SDS011;10778;48.962;9.018;2022-12-11T06:39:46;47.00;;;24.30;;
21239;SDS011;10778;48.962;9.018;2022-12-11T06:42:12;52.13;;;25.75;;
21239;SDS011;10778;48.962;9.018;2022-12-11T06:44:38;52.25;;;26.58;;
21239;SDS011;10778;48.962;9.018;2022-12-11T06:47:04;54.35;;;27.10;;
21239;SDS011;10778;48.962;9.018;2022-12-11T06:49:30;54.70;;;27.08;;
21239;SDS011;10778;48.962;9.018;2022-12-11T06:51:56;53.95;;;27.58;;
21239;SDS011;10778;48.962;9.018;2022-12-11T06:54:26;56.47;;;28.05;;
21239;SDS011;10778;48.962;9.018;2022-12-11T06:56:52;57.22;;;28.27;;
21239;SDS011;10778;48.962;9.018;2022-12-11T06:59:18;57.25;;;28.60;;
21239;SDS011;10778;48.962;9.018;2022-12-11T07:01:45;55.35;;;27.55;;
21239;SDS011;10778;48.962;9.018;2022-12-11T07:04:11;58.63;;;29.67;;
21239;SDS011;10778;48.962;9.018;2022-12-11T07:06:37;55.53;;;28.83;;
21239;SDS011;10778;48.962;9.018;2022-12-11T07:09:03;59.15;;;30.70;;
21239;SDS011;10778;48.962;9.018;2022-12-11T07:11:30;57.33;;;30.25;;
21239;SDS011;10778;48.962;9.018;2022-12-11T07:13:59;60.55;;;29.25;;
21239;SDS011;10778;48.962;9.018;2022-12-11T07:16:25;56.13;;;28.67;;
21239;SDS011;10778;48.962;9.018;2022-12-11T07:18:52;60.05;;;30.17;;
21239;SDS011;10778;48.962;9.018;2022-12-11T07:21:18;62.83;;;30.83;;
21239;SDS011;10778;48.962;9.018;2022-12-11T07:23:45;60.88;;;29.88;;
21239;SDS011;10778;48.962;9.018;2022-12-11T07:26:14;56.72;;;29.45;;
21239;SDS011;10778;48.962;9.018;2022-12-11T07:28:41;58.55;;;30.55;;
21239;SDS011;10778;48.962;9.018;2022-12-11T07:31:09;62.75;;;30.85;;
21239;SDS011;10778;48.962;9.018;2022-12-11T07:33:39;61.35;;;30.17;;
21239;SDS011;10778;48.962;9.018;2022-12-11T07:36:07;61.10;;;30.67;;
21239;SDS011;10778;48.962;9.018;2022-12-11T07:38:35;61.33;;;30.23;;
21239;SDS011;10778;48.962;9.018;2022-12-11T07:41:02;60.95;;;30.70;;
21239;SDS011;10778;48.962;9.018;2022-12-11T07:43:30;57.38;;;29.17;;
21239;SDS011;10778;48.962;9.018;2022-12-11T07:46:05;62.22;;;29.75;;
21239;SDS011;10778;48.962;9.018;2022-12-11T07:48:36;68.93;;;33.03;;
21239;SDS011;10778;48.962;9.018;2022-12-11T07:51:08;63.90;;;31.60;;
21239;SDS011;10778;48.962;9.018;2022-12-11T07:53:46;60.13;;;29.92;;
21239;SDS011;10778;48.962;9.018;2022-12-11T07:56:14;60.72;;;28.75;;
21239;SDS011;10778;48.962;9.018;2022-12-11T07:58:41;59.05;;;28.75;;
21239;SDS011;10778;48.962;9.018;2022-12-11T08:01:11;61.63;;;29.92;;
21239;SDS011;10778;48.962;9.018;2022-12-11T08:03:38;67.40;;;33.63;;
21239;SDS011;10778;48.962;9.018;2022-12-11T08:06:05;65.93;;;33.47;;
21239;SDS011;10778;48.962;9.018;2022-12-11T08:08:31;66.53;;;33.15;;
21239;SDS011;10778;48.962;9.018;2022-12-11T08:11:01;63.30;;;31.85;;
21239;SDS011;10778;48.962;9.018;2022-12-11T08:13:28;60.13;;;29.85;;
21239;SDS011;10778;48.962;9.018;2022-12-11T08:15:54;62.05;;;31.70;;
21239;SDS011;10778;48.962;9.018;2022-12-11T08:18:20;61.83;;;31.95;;
21239;SDS011;10778;48.962;9.018;2022-12-11T08:20:46;65.35;;;31.45;;
21239;SDS011;10778;48.962;9.018;2022-12-11T08:23:12;62.97;;;30.65;;
21239;SDS011;10778;48.962;9.018;2022-12-11T08:25:39;63.63;;;32.00;;
21239;SDS011;10778;48.962;9.018;2022-12-11T08:28:05;62.92;;;31.52;;
21239;SDS011;10778;48.962;9.018;2022-12-11T08:30:31;62.92;;;32.45;;
21239;SDS011;10778;48.962;9.018;2022-12-11T08:32:57;67.10;;;32.15;;
21239;SDS011;10778;48.962;9.018;2022-12-11T08:35:24;65.45;;;32.63;;
21239;SDS011;10778;48.962;9.018;2022-12-11T08:37:51;68.18;;;34.72;;
21239;SDS011;10778;48.962;9.018;2022-12-11T08:40:17;70.63;;;36.38;;
21239;SDS011;10778;48.962;9.018;2022-12-11T08:42:43;72.97;;;34.67;;
21239;SDS011;10778;48.962;9.018;2022-12-11T08:45:09;71.82;;;34.72;;
21239;SDS011;10778;48.962;9.018;2022-12-11T08:47:35;65.78;;;32.50;;
21239;SDS011;10778;48.962;9.018;2022-12-11T08:50:02;66.05;;;32.20;;
21239;SDS011;10778;48.962;9.018;2022-12-11T08:52:29;64.50;;;31.48;;
21239;SDS011;10778;48.962;9.018;2022-12-11T08:54:56;74.07;;;33.28;;
21239;SDS011;10778;48.962;9.018;2022-12-11T08:57:23;74.75;;;35.15;;
21239;SDS011;10778;48.962;9.018;2022-12-11T08:59:49;79.57;;;36.50;;
21239;SDS011;10778;48.962;9.018;2022-12-11T09:02:15;70.55;;;34.88;;
21239;SDS011;10778;48.962;9.018;2022-12-11T09:04:41;66.32;;;32.65;;
21239;SDS011;10778;48.962;9.018;2022-12-11T09:07:07;61.88;;;32.35;;
21239;SDS011;10778;48.962;9.018;2022-12-11T09:09:33;58.65;;;31.35;;
21239;SDS011;10778;48.962;9.018;2022-12-11T09:11:59;56.35;;;29.73;;
21239;SDS011;10778;48.962;9.018;2022-12-11T09:14:26;53.25;;;27.33;;
21239;SDS011;10778;48.962;9.018;2022-12-11T09:16:52;47.22;;;26.50;;
21239;SDS011;10778;48.962;9.018;2022-12-11T09:19:18;49.45;;;26.85;;
21239;SDS011;10778;48.962;9.018;2022-12-11T09:21:44;45.83;;;25.33;;
21239;SDS011;10778;48.962;9.018;2022-12-11T09:24:11;43.75;;;25.35;;
21239;SDS011;10778;48.962;9.018;2022-12-11T09:26:37;49.58;;;28.42;;
21239;SDS011;10778;48.962;9.018;2022-12-11T09:29:04;47.53;;;26.10;;
21239;SDS011;10778;48.962;9.018;2022-12-11T09:31:32;46.92;;;26.58;;
21239;SDS011;10778;48.962;9.018;2022-12-11T09:34:07;46.28;;;25.88;;
21239;SDS011;10778;48.962;9.018;2022-12-11T09:36:40;48.17;;;26.90;;
21239;SDS011;10778;48.962;9.018;2022-12-11T09:39:10;48.30;;;26.30;;
21239;SDS011;10778;48.962;9.018;2022-12-11T09:46:49;52.10;;;27.63;;
21239;SDS011;10778;48.962;9.018;2022-12-11T09:52:09;48.90;;;26.63;;
21239;SDS011;10778;48.962;9.018;2022-12-11T09:54:59;50.03;;;25.70;;
21239;SDS011;10778;48.962;9.018;2022-12-11T09:57:30;47.88;;;24.90;;
21239;SDS011;10778;48.962;9.018;2022-12-11T10:00:06;49.80;;;26.55;;
21239;SDS011;10778;48.962;9.018;2022-12-11T10:02:40;48.10;;;25.35;;
21239;SDS011;10778;48.962;9.018;2022-12-11T10:18:34;49.70;;;25.58;;
21239;SDS011;10778;48.962;9.018;2022-12-11T10:21:01;51.33;;;28.48;;
21239;SDS011;10778;48.962;9.018;2022-12-11T10:23:30;50.60;;;26.95;;
21239;SDS011;10778;48.962;9.018;2022-12-11T10:26:08;52.45;;;27.60;;
21239;SDS011;10778;48.962;9.018;2022-12-11T10:28:40;58.40;;;30.92;;
21239;SDS011;10778;48.962;9.018;2022-12-11T10:31:13;54.38;;;28.88;;
21239;SDS011;10778;48.962;9.018;2022-12-11T10:36:17;51.17;;;26.00;;
21239;SDS011;10778;48.962;9.018;2022-12-11T10:38:48;53.65;;;27.40;;
21239;SDS011;10778;48.962;9.018;2022-12-11T10:41:19;47.70;;;25.00;;
21239;SDS011;10778;48.962;9.018;2022-12-11T10:43:50;50.97;;;26.33;;
21239;SDS011;10778;48.962;9.018;2022-12-11T10:46:19;50.17;;;25.75;;
21239;SDS011;10778;48.962;9.018;2022-12-11T10:48:47;50.53;;;26.17;;
21239;SDS011;10778;48.962;9.018;2022-12-11T10:51:18;51.05;;;26.38;;
21239;SDS011;10778;48.962;9.018;2022-12-11T10:53:54;49.28;;;26.85;;
21239;SDS011;10778;48.962;9.018;2022-12-11T10:56:26;50.63;;;26.63;;
21239;SDS011;10778;48.962;9.018;2022-12-11T10:58:54;47.40;;;26.05;;
21239;SDS011;10778;48.962;9.018;2022-12-11T11:01:23;49.17;;;26.35;;
21239;SDS011;10778;48.962;9.018;2022-12-11T11:06:40;49.38;;;27.42;;
21239;SDS011;10778;48.962;9.018;2022-12-11T11:09:29;52.55;;;27.23;;
21239;SDS011;10778;48.962;9.018;2022-12-11T11:11:58;55.45;;;26.92;;
21239;SDS011;10778;48.962;9.018;2022-12-11T11:14:24;54.00;;;28.05;;
21239;SDS011;10778;48.962;9.018;2022-12-11T11:16:51;58.47;;;30.55;;
21239;SDS011;10778;48.962;9.018;2022-12-11T11:19:30;52.92;;;28.52;;
21239;SDS011;10778;48.962;9.018;2022-12-11T11:22:03;55.38;;;29.35;;
21239;SDS011;10778;48.962;9.018;2022-12-11T11:24:35;54.10;;;29.13;;
21239;SDS011;10778;48.962;9.018;2022-12-11T11:27:27;52.30;;;26.90;;
21239;SDS011;10778;48.962;9.018;2022-12-11T11:29:54;53.20;;;27.40;;
21239;SDS011;10778;48.962;9.018;2022-12-11T11:32:25;51.15;;;25.75;;
21239;SDS011;10778;48.962;9.018;2022-12-11T11:35:05;54.63;;;28.63;;
21239;SDS011;10778;48.962;9.018;2022-12-11T11:37:43;53.70;;;27.77;;
21239;SDS011;10778;48.962;9.018;2022-12-11T11:45:52;50.50;;;27.50;;
21239;SDS011;10778;48.962;9.018;2022-12-11T11:48:29;56.30;;;29.40;;
21239;SDS011;10778;48.962;9.018;2022-12-11T11:50:55;52.42;;;27.75;;
21239;SDS011;10778;48.962;9.018;2022-12-11T11:53:28;53.53;;;30.35;;
21239;SDS011;10778;48.962;9.018;2022-12-11T11:56:04;72.60;;;43.65;;
21239;SDS011;10778;48.962;9.018;2022-12-11T11:58:37;53.20;;;28.60;;
21239;SDS011;10778;48.962;9.018;2022-12-11T12:01:15;49.80;;;26.98;;
21239;SDS011;10778;48.962;9.018;2022-12-11T12:03:44;76.90;;;45.72;;
21239;SDS011;10778;48.962;9.018;2022-12-11T12:06:19;52.92;;;27.20;;
21239;SDS011;10778;48.962;9.018;2022-12-11T12:34:33;44.28;;;24.55;;
21239;SDS011;10778;48.962;9.018;2022-12-11T12:45:46;45.85;;;25.05;;
21239;SDS011;10778;48.962;9.018;2022-12-11T12:48:29;47.90;;;25.35;;
21239;SDS011;10778;48.962;9.018;2022-12-11T12:50:55;46.00;;;25.27;;
21239;SDS011;10778;48.962;9.018;2022-12-11T12:53:22;45.90;;;24.70;;
21239;SDS011;10778;48.962;9.018;2022-12-11T12:55:51;45.67;;;24.58;;
21239;SDS011;10778;48.962;9.018;2022-12-11T12:58:28;51.63;;;26.10;;
21239;SDS011;10778;48.962;9.018;2022-12-11T13:01:04;43.42;;;24.27;;
21239;SDS011;10778;48.962;9.018;2022-12-11T13:03:34;47.15;;;25.25;;
21239;SDS011;10778;48.962;9.018;2022-12-11T13:06:13;44.33;;;24.00;;
21239;SDS011;10778;48.962;9.018;2022-12-11T13:08:46;43.05;;;23.67;;
21239;SDS011;10778;48.962;9.018;2022-12-11T13:11:16;41.28;;;23.42;;
21239;SDS011;10778;48.962;9.018;2022-12-11T13:13:48;39.35;;;22.55;;
21239;SDS011;10778;48.962;9.018;2022-12-11T13:16:35;39.40;;;22.30;;
21239;SDS011;10778;48.962;9.018;2022-12-11T13:19:15;40.83;;;22.25;;
21239;SDS011;10778;48.962;9.018;2022-12-11T13:21:58;38.38;;;22.38;;
21239;SDS011;10778;48.962;9.018;2022-12-11T13:24:30;39.72;;;22.73;;
21239;SDS011;10778;48.962;9.018;2022-12-11T13:27:09;39.92;;;21.65;;
21239;SDS011;10778;48.962;9.018;2022-12-11T13:29:46;37.13;;;21.40;;
21239;SDS011;10778;48.962;9.018;2022-12-11T13:34:43;39.67;;;20.88;;
21239;SDS011;10778;48.962;9.018;2022-12-11T13:37:21;38.00;;;21.38;;
21239;SDS011;10778;48.962;9.018;2022-12-11T13:40:05;36.63;;;20.88;;
21239;SDS011;10778;48.962;9.018;2022-12-11T13:43:03;37.05;;;21.67;;
21239;SDS011;10778;48.962;9.018;2022-12-11T13:45:57;35.78;;;20.23;;
21239;SDS011;10778;48.962;9.018;2022-12-11T13:48:29;33.58;;;19.50;;
21239;SDS011;10778;48.962;9.018;2022-12-11T13:51:01;40.92;;;20.83;;
21239;SDS011;10778;48.962;9.018;2022-12-11T13:53:29;37.97;;;20.92;;
21239;SDS011;10778;48.962;9.018;2022-12-11T13:55:56;39.83;;;21.33;;
21239;SDS011;10778;48.962;9.018;2022-12-11T13:58:33;37.80;;;20.80;;
21239;SDS011;10778;48.962;9.018;2022-12-11T14:01:06;36.50;;;20.73;;
21239;SDS011;10778;48.962;9.018;2022-12-11T14:03:39;37.47;;;21.25;;
21239;SDS011;10778;48.962;9.018;2022-12-11T14:06:09;39.10;;;20.70;;
21239;SDS011;10778;48.962;9.018;2022-12-11T14:08:37;37.53;;;20.80;;
21239;SDS011;10778;48.962;9.018;2022-12-11T14:11:07;39.42;;;21.42;;
21239;SDS011;10778;48.962;9.018;2022-12-11T14:13:34;39.72;;;21.58;;
21239;SDS011;10778;48.962;9.018;2022-12-11T14:16:04;40.83;;;21.50;;
21239;SDS011;10778;48.962;9.018;2022-12-11T14:18:31;37.33;;;21.27;;
21239;SDS011;10778;48.962;9.018;2022-12-11T14:21:03;37.72;;;21.10;;
21239;SDS011;10778;48.962;9.018;2022-12-11T14:23:31;37.78;;;20.70;;
21239;SDS011;10778;48.962;9.018;2022-12-11T14:26:03;45.00;;;23.60;;
21239;SDS011;10778;48.962;9.018;2022-12-11T14:28:42;43.53;;;22.73;;
21239;SDS011;10778;48.962;9.018;2022-12-11T14:31:09;40.17;;;21.95;;
21239;SDS011;10778;48.962;9.018;2022-12-11T14:33:41;39.53;;;21.25;;
21239;SDS011;10778;48.962;9.018;2022-12-11T14:36:12;40.65;;;21.90;;
21239;SDS011;10778;48.962;9.018;2022-12-11T14:38:43;37.33;;;20.38;;
21239;SDS011;10778;48.962;9.018;2022-12-11T14:41:16;37.90;;;20.75;;
21239;SDS011;10778;48.962;9.018;2022-12-11T14:44:04;37.53;;;20.55;;
21239;SDS011;10778;48.962;9.018;2022-12-11T14:46:37;35.83;;;19.52;;
21239;SDS011;10778;48.962;9.018;2022-12-11T14:51:56;38.15;;;19.95;;
21239;SDS011;10778;48.962;9.018;2022-12-11T14:56:53;33.17;;;19.67;;
21239;SDS011;10778;48.962;9.018;2022-12-11T14:59:20;36.60;;;20.15;;
21239;SDS011;10778;48.962;9.018;2022-12-11T15:01:56;35.65;;;20.20;;
21239;SDS011;10778;48.962;9.018;2022-12-11T15:04:27;38.03;;;20.65;;
21239;SDS011;10778;48.962;9.018;2022-12-11T15:06:55;37.17;;;20.52;;
21239;SDS011;10778;48.962;9.018;2022-12-11T15:12:13;33.33;;;19.50;;
21239;SDS011;10778;48.962;9.018;2022-12-11T15:14:43;35.25;;;20.17;;
21239;SDS011;10778;48.962;9.018;2022-12-11T15:17:12;32.28;;;19.23;;
21239;SDS011;10778;48.962;9.018;2022-12-11T15:19:39;36.63;;;21.20;;
21239;SDS011;10778;48.962;9.018;2022-12-11T15:22:07;31.60;;;19.02;;
21239;SDS011;10778;48.962;9.018;2022-12-11T15:24:38;35.10;;;19.48;;
21239;SDS011;10778;48.962;9.018;2022-12-11T15:27:15;34.63;;;19.55;;
21239;SDS011;10778;48.962;9.018;2022-12-11T15:32:43;35.83;;;19.88;;
21239;SDS011;10778;48.962;9.018;2022-12-11T15:35:23;34.95;;;19.73;;
21239;SDS011;10778;48.962;9.018;2022-12-11T15:37:55;36.25;;;20.05;;
21239;SDS011;10778;48.962;9.018;2022-12-11T15:40:23;35.55;;;19.45;;
21239;SDS011;10778;48.962;9.018;2022-12-11T15:42:53;36.05;;;19.85;;
21239;SDS011;10778;48.962;9.018;2022-12-11T15:45:21;36.97;;;20.55;;
21239;SDS011;10778;48.962;9.018;2022-12-11T15:47:50;40.97;;;22.52;;
21239;SDS011;10778;48.962;9.018;2022-12-11T15:50:24;38.83;;;21.33;;
21239;SDS011;10778;48.962;9.018;2022-12-11T15:52:52;36.30;;;19.77;;
21239;SDS011;10778;48.962;9.018;2022-12-11T15:55:20;40.08;;;22.20;;
21239;SDS011;10778;48.962;9.018;2022-12-11T15:57:49;39.97;;;22.10;;
21239;SDS011;10778;48.962;9.018;2022-12-11T16:00:18;37.10;;;21.33;;
21239;SDS011;10778;48.962;9.018;2022-12-11T16:02:45;38.65;;;21.75;;
21239;SDS011;10778;48.962;9.018;2022-12-11T16:05:12;39.35;;;21.42;;
21239;SDS011;10778;48.962;9.018;2022-12-11T16:07:39;39.72;;;21.88;;
21239;SDS011;10778;48.962;9.018;2022-12-11T16:10:06;38.92;;;21.02;;
21239;SDS011;10778;48.962;9.018;2022-12-11T16:12:37;37.83;;;21.77;;
21239;SDS011;10778;48.962;9.018;2022-12-11T16:15:03;38.47;;;21.63;;
21239;SDS011;10778;48.962;9.018;2022-12-11T16:17:29;38.60;;;22.98;;